Time;durP1;ratioP1;P1;durP2;ratioP2;P2;SDS_P1;SDS_P2;PMS_P1;PMS_P2;Temp;Humidity;BMP_temperature;BMP_pressure;BME280_temperature;BME280_humidity;BME280_pressure;Samples;Min_cycle;Max_cycle;Signal;HPM_P1;HPM_P2
2022/09/27 00:00:21;;;;;;;7.32;2.30;;;10.60;88.00;;;;;;4926523;28;20044;-80
2022/09/27 00:02:48;;;;;;;4.07;1.80;;;10.60;87.90;;;;;;4917709;29;20043;-75
2022/09/27 00:05:14;;;;;;;7.88;2.50;;;10.60;87.60;;;;;;4918486;29;20036;-75
2022/09/27 00:07:40;;;;;;;7.80;2.53;;;10.60;86.90;;;;;;4919795;29;20027;-75
2022/09/27 00:10:07;;;;;;;9.05;2.10;;;10.60;86.70;;;;;;4920577;29;21299;-75
2022/09/27 00:12:33;;;;;;;7.68;2.42;;;10.50;86.50;;;;;;4921213;29;20492;-76
2022/09/27 00:14:59;;;;;;;7.85;2.35;;;10.50;86.50;;;;;;4907801;29;20162;-73
2022/09/27 00:17:26;;;;;;;6.30;2.03;;;10.50;86.50;;;;;;4915675;29;20094;-73
2022/09/27 00:19:51;;;;;;;5.43;2.10;;;10.50;86.50;;;;;;4927877;28;20040;-75
2022/09/27 00:22:17;;;;;;;10.25;2.15;;;10.50;86.50;;;;;;4931500;28;20047;-77
2022/09/27 00:24:42;;;;;;;9.32;2.15;;;10.40;86.70;;;;;;4924527;29;20028;-74
2022/09/27 00:27:08;;;;;;;6.05;1.98;;;10.50;86.80;;;;;;4910493;29;21398;-78
2022/09/27 00:29:34;;;;;;;4.43;2.13;;;10.50;86.90;;;;;;4921011;29;20479;-75
2022/09/27 00:32:00;;;;;;;4.97;1.80;;;10.40;86.80;;;;;;4919935;29;20028;-74
2022/09/27 00:34:25;;;;;;;5.72;2.20;;;10.50;86.90;;;;;;4929498;28;20040;-74
2022/09/27 00:36:51;;;;;;;7.53;2.28;;;10.50;86.90;;;;;;4927197;29;20122;-73
2022/09/27 00:39:17;;;;;;;8.55;3.30;;;10.40;87.10;;;;;;4924354;28;20036;-76
2022/09/27 00:41:44;;;;;;;7.38;4.60;;;10.50;87.00;;;;;;4930832;29;20031;-73
2022/09/27 00:44:24;;;;;;;9.55;4.90;;;10.40;87.10;;;;;;4922706;29;20055;-74
2022/09/27 00:47:15;;;;;;;10.73;6.45;;;10.40;87.40;;;;;;4913172;29;20044;-73
2022/09/27 00:49:54;;;;;;;11.68;5.38;;;10.50;87.60;;;;;;4921507;28;20039;-74
2022/09/27 00:52:26;;;;;;;11.10;4.43;;;10.40;87.80;;;;;;4918533;29;20391;-73
2022/09/27 00:55:01;;;;;;;8.20;4.60;;;10.40;88.10;;;;;;4936388;28;20043;-77
2022/09/27 00:57:27;;;;;;;10.32;4.43;;;10.40;88.30;;;;;;4923415;29;20047;-76
2022/09/27 01:00:05;;;;;;;11.27;4.65;;;10.40;88.40;;;;;;4934441;28;20095;-73
2022/09/27 01:02:32;;;;;;;8.75;3.67;;;10.40;88.60;;;;;;4920506;29;20032;-77
2022/09/27 01:04:57;;;;;;;11.73;4.45;;;10.40;88.80;;;;;;4918188;29;20122;-75
2022/09/27 01:07:23;;;;;;;11.32;4.60;;;10.50;89.00;;;;;;4920875;29;20488;-73
2022/09/27 01:09:49;;;;;;;10.15;4.50;;;10.40;89.00;;;;;;4911039;29;20054;-76
2022/09/27 01:12:45;;;;;;;10.40;4.15;;;10.50;89.10;;;;;;4923255;29;20555;-72
2022/09/27 01:15:11;;;;;;;9.63;4.20;;;10.50;89.10;;;;;;4924511;29;20051;-74
2022/09/27 01:17:58;;;;;;;11.48;4.60;;;10.50;89.10;;;;;;4927886;29;20044;-73
2022/09/27 01:20:50;;;;;;;9.80;4.60;;;10.50;89.00;;;;;;4921667;29;20043;-75
2022/09/27 01:23:50;;;;;;;11.23;4.78;;;10.50;88.90;;;;;;4897160;29;20047;-81
2022/09/27 01:26:34;;;;;;;11.70;4.97;;;10.50;88.80;;;;;;4925024;29;20031;-77
2022/09/27 01:29:37;;;;;;;10.35;4.50;;;10.50;88.70;;;;;;4925549;28;20475;-76
2022/09/27 01:32:24;;;;;;;10.93;4.57;;;10.50;88.60;;;;;;4922694;29;20032;-72
2022/09/27 01:35:00;;;;;;;11.48;4.25;;;10.50;88.60;;;;;;4925162;29;20136;-79
2022/09/27 01:37:32;;;;;;;8.77;4.03;;;10.50;88.70;;;;;;4925958;29;20056;-74
2022/09/27 01:40:23;;;;;;;10.57;4.03;;;10.50;88.70;;;;;;4927241;28;20107;-79
2022/09/27 01:43:05;;;;;;;12.10;4.90;;;10.50;88.80;;;;;;4916078;28;20057;-73
2022/09/27 01:45:39;;;;;;;12.40;4.18;;;10.60;88.90;;;;;;4910611;29;20645;-73
2022/09/27 01:48:14;;;;;;;;;;;10.60;88.90;;;;;;4925426;29;20423;-73
2022/09/27 01:50:46;;;;;;;10.82;6.35;;;10.50;88.80;;;;;;4922453;29;20536;-74
2022/09/27 01:53:17;;;;;;;12.25;6.28;;;10.50;88.90;;;;;;4937726;28;20039;-73
2022/09/27 01:55:47;;;;;;;12.75;8.30;;;10.60;89.10;;;;;;4919509;29;20395;-75
2022/09/27 01:58:23;;;;;;;15.07;9.68;;;10.60;89.60;;;;;;4928098;28;20024;-78
2022/09/27 02:00:51;;;;;;;17.35;8.40;;;10.60;89.50;;;;;;4924757;29;20032;-72
2022/09/27 02:03:41;;;;;;;16.48;7.15;;;10.50;89.60;;;;;;4925045;29;20039;-80
2022/09/27 02:06:16;;;;;;;10.73;6.03;;;10.50;89.60;;;;;;4923450;29;20039;-74
2022/09/27 02:08:47;;;;;;;;;;;10.50;89.50;;;;;;4924568;29;20042;-75
2022/09/27 02:11:13;;;;;;;10.65;6.80;;;10.50;89.50;;;;;;4922114;29;19930;-73
2022/09/27 02:13:53;;;;;;;12.93;7.28;;;10.50;89.50;;;;;;4919150;29;20051;-74
2022/09/27 02:16:49;;;;;;;11.15;7.00;;;10.40;89.70;;;;;;4924044;29;20503;-75
2022/09/27 02:19:23;;;;;;;13.82;6.32;;;10.40;89.90;;;;;;4920562;29;20034;-73
2022/09/27 02:22:22;;;;;;;14.05;6.38;;;10.40;89.90;;;;;;4926716;29;20111;-73
2022/09/27 02:24:59;;;;;;;11.05;4.68;;;10.40;89.80;;;;;;4926282;28;20095;-74
2022/09/27 02:27:33;;;;;;;11.18;3.95;;;10.20;89.60;;;;;;4922827;29;20135;-77
2022/09/27 02:30:10;;;;;;;8.88;3.60;;;10.10;89.60;;;;;;4922335;29;20027;-74
2022/09/27 02:32:36;;;;;;;9.77;3.35;;;10.10;89.70;;;;;;4924799;29;21148;-75
2022/09/27 02:35:11;;;;;;;6.25;2.60;;;10.10;89.30;;;;;;4919679;29;20036;-76
2022/09/27 02:37:37;;;;;;;7.72;3.53;;;10.00;89.20;;;;;;4922378;28;20044;-78
2022/09/27 02:40:03;;;;;;;5.53;2.70;;;10.00;89.10;;;;;;4922569;29;20077;-75
2022/09/27 02:42:30;;;;;;;11.07;3.22;;;9.90;89.10;;;;;;4920010;29;20104;-78
2022/09/27 02:44:56;;;;;;;5.47;3.10;;;10.00;89.10;;;;;;4922332;29;20040;-75
2022/09/27 02:47:35;;;;;;;8.45;3.15;;;9.90;89.10;;;;;;4923730;29;20046;-73
2022/09/27 02:50:06;;;;;;;6.35;2.35;;;9.90;88.90;;;;;;4918206;29;20127;-73
2022/09/27 02:52:51;;;;;;;6.22;2.67;;;9.90;89.00;;;;;;4918554;29;20031;-75
2022/09/27 02:55:50;;;;;;;5.23;2.83;;;9.80;89.00;;;;;;4917229;28;20366;-78
2022/09/27 02:58:30;;;;;;;7.32;3.28;;;9.80;89.20;;;;;;4909818;29;20473;-76
2022/09/27 03:01:12;;;;;;;5.93;3.35;;;9.80;89.20;;;;;;4925539;29;20126;-78
2022/09/27 03:03:45;;;;;;;8.45;3.72;;;9.80;89.20;;;;;;4929341;28;20036;-75
2022/09/27 03:06:15;;;;;;;10.15;3.80;;;9.70;89.10;;;;;;4918502;29;20779;-74
2022/09/27 03:08:42;;;;;;;7.22;3.47;;;9.70;89.30;;;;;;4919289;28;20376;-74
2022/09/27 03:11:07;;;;;;;4.72;2.70;;;9.70;89.40;;;;;;4918499;29;20043;-78
2022/09/27 03:13:35;;;;;;;7.07;3.20;;;9.80;89.40;;;;;;4925067;29;20048;-74
2022/09/27 03:16:01;;;;;;;6.18;3.25;;;9.70;89.30;;;;;;4927778;29;20036;-76
2022/09/27 03:18:26;;;;;;;6.57;3.17;;;9.80;89.30;;;;;;4918369;29;20039;-75
2022/09/27 03:20:53;;;;;;;5.95;3.00;;;9.70;89.20;;;;;;4918654;28;20032;-74
2022/09/27 03:23:19;;;;;;;5.68;2.88;;;9.70;89.30;;;;;;4919987;29;20059;-73
2022/09/27 03:25:45;;;;;;;6.85;3.00;;;9.70;89.30;;;;;;4921626;28;20048;-75
2022/09/27 03:28:11;;;;;;;5.78;2.78;;;9.70;89.30;;;;;;4922556;29;20100;-74
2022/09/27 03:30:37;;;;;;;8.75;3.38;;;9.70;89.30;;;;;;4920780;29;20336;-74
2022/09/27 03:33:03;;;;;;;7.50;3.38;;;9.70;89.10;;;;;;4923135;29;20032;-75
2022/09/27 03:35:29;;;;;;;7.55;3.55;;;9.70;89.00;;;;;;4920507;29;20039;-74
2022/09/27 03:37:54;;;;;;;11.48;5.82;;;9.80;89.00;;;;;;4908837;29;20487;-73
2022/09/27 03:40:20;;;;;;;10.90;6.75;;;9.80;89.00;;;;;;4917907;29;20031;-74
2022/09/27 03:42:46;;;;;;;11.95;4.95;;;9.80;89.10;;;;;;4925723;29;20593;-75
2022/09/27 03:45:12;;;;;;;7.68;3.10;;;9.80;89.00;;;;;;4918533;29;20481;-75
2022/09/27 03:47:41;;;;;;;5.32;2.45;;;9.70;88.50;;;;;;4925644;29;20860;-74
2022/09/27 03:50:08;;;;;;;3.78;2.58;;;9.70;88.30;;;;;;4923002;29;20048;-74
2022/09/27 03:52:35;;;;;;;5.55;2.75;;;9.70;88.40;;;;;;4919298;29;20490;-73
2022/09/27 03:55:01;;;;;;;6.18;2.35;;;9.70;88.70;;;;;;4922025;28;20046;-74
2022/09/27 03:57:28;;;;;;;6.75;2.55;;;9.70;88.80;;;;;;4926019;29;20027;-76
2022/09/27 03:59:53;;;;;;;9.82;3.00;;;9.70;89.10;;;;;;4924588;28;20080;-75
2022/09/27 04:02:19;;;;;;;7.35;2.40;;;9.70;89.30;;;;;;4925587;29;20134;-78
2022/09/27 04:04:44;;;;;;;7.40;3.55;;;9.70;89.40;;;;;;4920326;28;20495;-74
2022/09/27 04:07:10;;;;;;;6.95;3.83;;;9.70;89.40;;;;;;4919398;29;20106;-73
2022/09/27 04:09:36;;;;;;;11.15;5.03;;;9.70;89.40;;;;;;4931695;28;20094;-74
2022/09/27 04:12:03;;;;;;;7.32;3.95;;;9.70;89.40;;;;;;4920363;29;20483;-78
2022/09/27 04:14:28;;;;;;;8.90;4.45;;;9.70;89.30;;;;;;4921324;29;20047;-74
2022/09/27 04:16:54;;;;;;;7.93;4.05;;;9.70;89.30;;;;;;4917175;29;20044;-74
2022/09/27 04:19:20;;;;;;;8.45;3.83;;;9.70;89.50;;;;;;4917766;29;20107;-75
2022/09/27 04:21:46;;;;;;;7.55;4.28;;;9.70;89.50;;;;;;4917764;29;20044;-77
2022/09/27 04:24:12;;;;;;;9.32;5.20;;;9.70;89.60;;;;;;4923137;29;20527;-76
2022/09/27 04:26:38;;;;;;;8.73;5.90;;;9.70;89.60;;;;;;4915073;29;20056;-74
2022/09/27 04:29:04;;;;;;;10.70;7.28;;;9.70;89.60;;;;;;4913439;28;20075;-78
2022/09/27 04:31:30;;;;;;;9.30;6.63;;;9.60;89.80;;;;;;4914507;29;20052;-76
2022/09/27 04:33:57;;;;;;;9.40;5.93;;;9.60;89.90;;;;;;4927604;28;20050;-77
2022/09/27 04:36:28;;;;;;;10.68;6.43;;;9.60;89.90;;;;;;4897950;29;20383;-73
2022/09/27 04:38:55;;;;;;;11.85;6.32;;;9.60;89.80;;;;;;4913163;29;20039;-74
2022/09/27 04:41:22;;;;;;;8.70;5.80;;;9.60;89.90;;;;;;4915929;29;24272;-75
2022/09/27 04:43:51;;;;;;;11.55;6.15;;;9.60;90.00;;;;;;4911543;28;20059;-79
2022/09/27 04:46:19;;;;;;;10.98;6.53;;;9.70;90.10;;;;;;4918831;28;20031;-81
2022/09/27 04:48:44;;;;;;;13.15;8.27;;;9.70;90.10;;;;;;4911252;29;20047;-79
2022/09/27 04:51:10;;;;;;;11.25;7.22;;;9.70;90.10;;;;;;4913494;29;20475;-75
2022/09/27 04:53:36;;;;;;;13.20;7.10;;;9.60;90.10;;;;;;4917996;29;20842;-74
2022/09/27 04:56:05;;;;;;;10.57;7.10;;;9.60;90.20;;;;;;4920353;29;20395;-79
2022/09/27 04:58:32;;;;;;;11.45;6.90;;;9.70;90.10;;;;;;4926572;28;20030;-76
2022/09/27 05:01:00;;;;;;;11.48;7.78;;;9.70;90.20;;;;;;4922874;29;20032;-74
2022/09/27 05:03:27;;;;;;;12.05;8.63;;;9.70;90.20;;;;;;4920455;28;20030;-73
2022/09/27 05:05:53;;;;;;;14.32;7.93;;;9.70;90.20;;;;;;4921517;29;20043;-75
2022/09/27 05:08:19;;;;;;;19.05;9.13;;;9.70;90.00;;;;;;4919252;28;20043;-75
2022/09/27 05:10:46;;;;;;;13.98;7.38;;;9.70;90.00;;;;;;4914887;29;20074;-74
2022/09/27 05:13:12;;;;;;;11.15;6.32;;;9.70;89.90;;;;;;4914686;29;20502;-75
2022/09/27 05:15:38;;;;;;;11.00;6.43;;;9.70;90.00;;;;;;4914410;29;20044;-72
2022/09/27 05:18:04;;;;;;;11.55;6.35;;;9.70;90.00;;;;;;4911796;29;20036;-74
2022/09/27 05:20:30;;;;;;;12.23;6.30;;;9.70;90.20;;;;;;4911326;29;20054;-77
2022/09/27 05:22:55;;;;;;;10.80;5.78;;;9.70;90.20;;;;;;4906318;29;20048;-76
2022/09/27 05:25:21;;;;;;;12.85;5.85;;;9.70;90.40;;;;;;4915656;29;20062;-74
2022/09/27 05:27:48;;;;;;;9.55;6.00;;;9.70;90.40;;;;;;4924872;29;20070;-74
2022/09/27 05:30:14;;;;;;;11.02;5.60;;;9.60;90.60;;;;;;4917516;29;20059;-77
2022/09/27 05:32:42;;;;;;;14.05;6.15;;;9.60;90.60;;;;;;4917513;29;20458;-74
2022/09/27 05:35:08;;;;;;;12.60;5.95;;;9.50;90.70;;;;;;4922987;29;20463;-77
2022/09/27 05:37:34;;;;;;;11.50;6.15;;;9.50;90.80;;;;;;4919894;29;20061;-73
2022/09/27 05:40:01;;;;;;;14.10;6.82;;;9.40;91.00;;;;;;4921411;29;20107;-76
2022/09/27 05:42:26;;;;;;;10.88;6.18;;;9.50;91.30;;;;;;4928917;28;20058;-74
2022/09/27 05:44:52;;;;;;;13.95;6.47;;;9.50;91.40;;;;;;4917270;29;20036;-76
2022/09/27 05:47:18;;;;;;;12.10;6.65;;;9.60;91.40;;;;;;4925450;29;20035;-74
2022/09/27 05:49:43;;;;;;;11.20;6.82;;;9.60;91.40;;;;;;4916678;28;20071;-78
2022/09/27 05:52:09;;;;;;;15.30;6.50;;;9.60;91.20;;;;;;4918760;29;20099;-79
2022/09/27 05:54:35;;;;;;;11.32;5.50;;;9.60;91.40;;;;;;4906592;29;20059;-79
2022/09/27 05:57:00;;;;;;;11.15;5.82;;;9.60;91.10;;;;;;4917934;29;20365;-79
2022/09/27 05:59:26;;;;;;;11.52;5.90;;;9.60;91.10;;;;;;4918301;29;20028;-79
2022/09/27 06:01:53;;;;;;;11.23;5.35;;;9.60;91.00;;;;;;4918932;29;20152;-81
2022/09/27 06:04:20;;;;;;;12.63;5.38;;;9.70;91.00;;;;;;4918495;29;20472;-81
2022/09/27 06:06:46;;;;;;;11.50;5.45;;;9.70;90.70;;;;;;4928261;28;20040;-80
2022/09/27 06:09:14;;;;;;;8.00;4.90;;;9.70;90.70;;;;;;4908484;29;20032;-78
2022/09/27 06:11:41;;;;;;;10.80;5.53;;;9.70;90.60;;;;;;4925527;29;20044;-78
2022/09/27 06:14:07;;;;;;;10.15;5.18;;;9.70;90.60;;;;;;4923121;28;20047;-79
2022/09/27 06:16:32;;;;;;;9.68;5.55;;;9.70;90.50;;;;;;4938616;28;20040;-77
2022/09/27 06:18:58;;;;;;;8.65;5.05;;;9.70;90.30;;;;;;4923200;28;20054;-79
2022/09/27 06:21:24;;;;;;;8.43;5.82;;;9.70;90.40;;;;;;4919314;29;20612;-78
2022/09/27 06:23:50;;;;;;;10.15;5.93;;;9.80;90.20;;;;;;4923495;28;20083;-80
2022/09/27 06:26:16;;;;;;;9.45;5.40;;;9.70;90.10;;;;;;4923222;29;20052;-79
2022/09/27 06:28:41;;;;;;;10.30;5.03;;;9.80;90.20;;;;;;4921052;29;20126;-81
2022/09/27 06:31:08;;;;;;;10.43;4.93;;;9.70;90.10;;;;;;4914137;29;20075;-80
2022/09/27 06:33:34;;;;;;;8.65;4.93;;;9.70;90.10;;;;;;4904936;28;20028;-79
2022/09/27 06:36:07;;;;;;;8.80;4.40;;;9.70;90.10;;;;;;4926171;29;20051;-78
2022/09/27 06:38:33;;;;;;;8.52;4.10;;;9.70;90.10;;;;;;4932825;28;20452;-80
2022/09/27 06:41:03;;;;;;;9.63;5.05;;;9.70;90.30;;;;;;4922956;29;20066;-79
2022/09/27 06:43:30;;;;;;;10.75;5.43;;;9.70;90.30;;;;;;4913798;28;20029;-78
2022/09/27 06:46:04;;;;;;;9.23;5.03;;;9.80;90.40;;;;;;4922640;29;20046;-78
2022/09/27 06:48:36;;;;;;;10.27;5.47;;;9.80;90.60;;;;;;4922072;28;20112;-80
2022/09/27 06:51:02;;;;;;;11.10;4.95;;;9.80;90.40;;;;;;4915231;29;20080;-78
2022/09/27 06:53:28;;;;;;;11.00;4.90;;;9.90;90.50;;;;;;4915512;29;20466;-80
2022/09/27 06:55:58;;;;;;;10.50;4.78;;;9.90;90.50;;;;;;4918641;29;20063;-78
2022/09/27 07:01:09;;;;;;;6.40;3.45;;;9.90;90.30;;;;;;4917687;28;20491;-77
2022/09/27 07:03:38;;;;;;;7.97;3.72;;;9.90;90.10;;;;;;4917248;28;20038;-80
2022/09/27 07:06:05;;;;;;;9.50;3.70;;;9.80;90.20;;;;;;4902168;29;20126;-79
2022/09/27 07:08:32;;;;;;;7.35;3.78;;;9.80;90.30;;;;;;4899994;29;20079;-79
2022/09/27 07:11:04;;;;;;;7.15;3.90;;;9.80;90.30;;;;;;4923893;29;20040;-77
2022/09/27 07:13:33;;;;;;;6.80;3.83;;;9.90;90.40;;;;;;4922996;28;20059;-77
2022/09/27 07:15:59;;;;;;;7.57;3.95;;;9.90;90.40;;;;;;4926017;29;20134;-78
2022/09/27 07:18:25;;;;;;;7.25;3.97;;;9.80;90.10;;;;;;4924434;28;20139;-78
2022/09/27 07:20:52;;;;;;;9.98;4.70;;;9.80;90.30;;;;;;4926216;29;20032;-76
2022/09/27 07:23:17;;;;;;;8.48;5.28;;;9.80;90.40;;;;;;4907713;29;20105;-78
2022/09/27 07:25:43;;;;;;;9.68;5.57;;;9.80;90.50;;;;;;4916955;28;20401;-77
2022/09/27 07:28:17;;;;;;;9.35;5.80;;;9.80;90.60;;;;;;4918782;28;20035;-80
2022/09/27 07:30:43;;;;;;;12.50;7.97;;;9.90;90.80;;;;;;4930624;28;20651;-83
2022/09/27 07:33:10;;;;;;;11.70;7.93;;;9.90;90.80;;;;;;4924194;29;20046;-81
2022/09/27 07:35:38;;;;;;;13.77;8.80;;;9.90;90.70;;;;;;4928376;28;20067;-80
2022/09/27 07:38:07;;;;;;;13.00;8.88;;;9.90;90.80;;;;;;4925101;29;20027;-74
2022/09/27 07:40:35;;;;;;;13.13;7.05;;;9.90;90.80;;;;;;4924294;28;20027;-76
2022/09/27 07:43:01;;;;;;;12.38;7.95;;;10.00;91.00;;;;;;4925517;29;20042;-78
2022/09/27 07:45:27;;;;;;;18.20;12.65;;;10.00;90.90;;;;;;4928804;28;20398;-79
2022/09/27 07:47:53;;;;;;;14.88;9.63;;;10.10;91.10;;;;;;4917852;29;20023;-79
2022/09/27 07:50:20;;;;;;;11.73;6.30;;;10.10;90.80;;;;;;4923519;28;21035;-79
2022/09/27 07:52:49;;;;;;;10.25;6.93;;;10.10;90.70;;;;;;4919209;29;20051;-79
2022/09/27 07:55:17;;;;;;;13.32;7.35;;;10.10;90.70;;;;;;4918185;28;20039;-76
2022/09/27 07:57:45;;;;;;;11.95;7.20;;;10.10;90.70;;;;;;4924677;29;20123;-76
2022/09/27 08:00:15;;;;;;;12.40;7.38;;;10.20;90.80;;;;;;4927809;28;20043;-78
2022/09/27 08:02:42;;;;;;;14.32;7.50;;;10.30;90.70;;;;;;4922116;29;20036;-76
2022/09/27 08:05:09;;;;;;;14.35;6.90;;;10.30;90.70;;;;;;4923177;28;20036;-79
2022/09/27 08:07:35;;;;;;;13.93;7.45;;;10.40;90.60;;;;;;4905496;29;20044;-81
2022/09/27 08:10:00;;;;;;;12.38;7.07;;;10.40;90.40;;;;;;4905850;28;20039;-78
2022/09/27 08:12:26;;;;;;;14.23;7.32;;;10.60;90.30;;;;;;4920085;28;20038;-75
2022/09/27 08:14:52;;;;;;;12.60;6.28;;;10.60;90.20;;;;;;4928838;28;20456;-79
2022/09/27 08:17:20;;;;;;;14.93;6.90;;;10.70;89.80;;;;;;4924698;29;20067;-82
2022/09/27 08:19:48;;;;;;;12.85;6.38;;;10.70;89.40;;;;;;4919948;28;20531;-77
2022/09/27 08:22:15;;;;;;;11.63;5.68;;;10.70;89.20;;;;;;4921368;29;20503;-75
2022/09/27 08:24:41;;;;;;;10.52;4.90;;;10.80;89.00;;;;;;4904297;29;20483;-74
2022/09/27 08:27:07;;;;;;;12.48;5.05;;;10.90;88.10;;;;;;4916220;29;20047;-75
2022/09/27 08:29:34;;;;;;;8.75;4.50;;;11.00;88.20;;;;;;4914978;28;20039;-79
2022/09/27 08:32:00;;;;;;;11.90;3.60;;;11.10;87.60;;;;;;4918239;29;20032;-78
2022/09/27 08:34:27;;;;;;;9.88;3.25;;;11.20;87.10;;;;;;4913751;29;20035;-78
2022/09/27 08:36:54;;;;;;;9.60;2.72;;;11.30;86.60;;;;;;4918857;29;20045;-78
2022/09/27 08:39:23;;;;;;;9.25;3.13;;;11.40;86.10;;;;;;4912357;28;20065;-77
2022/09/27 08:42:08;;;;;;;7.68;2.67;;;11.60;85.60;;;;;;4917107;29;20061;-77
2022/09/27 08:44:51;;;;;;;9.50;3.70;;;11.70;84.70;;;;;;4919476;28;20043;-76
2022/09/27 08:47:25;;;;;;;11.25;3.53;;;12.00;84.80;;;;;;4911837;29;20090;-78
2022/09/27 08:49:57;;;;;;;8.60;3.60;;;12.10;83.90;;;;;;4898081;28;20461;-78
2022/09/27 08:52:29;;;;;;;10.90;3.42;;;12.10;83.50;;;;;;4923900;28;20061;-76
2022/09/27 08:54:57;;;;;;;10.35;4.65;;;12.10;83.60;;;;;;4910317;28;20116;-78
2022/09/27 08:57:24;;;;;;;10.73;4.63;;;11.90;83.30;;;;;;4914226;29;20310;-78
2022/09/27 09:00:07;;;;;;;11.35;4.70;;;12.00;82.90;;;;;;4913592;28;20432;-77
2022/09/27 09:02:34;;;;;;;13.75;5.57;;;12.10;82.60;;;;;;4909670;29;20649;-78
2022/09/27 09:05:16;;;;;;;16.75;8.25;;;12.40;82.80;;;;;;4909653;29;20440;-75
2022/09/27 09:07:56;;;;;;;15.73;9.43;;;12.60;82.60;;;;;;4918838;29;20036;-78
2022/09/27 09:13:48;;;;;;;14.02;4.72;;;13.10;81.20;;;;;;4916323;29;20043;-77
2022/09/27 09:16:27;;;;;;;9.38;2.95;;;13.50;80.50;;;;;;4914118;29;20054;-80
2022/09/27 09:19:07;;;;;;;15.80;3.55;;;13.50;78.40;;;;;;4914073;29;20038;-75
2022/09/27 09:21:55;;;;;;;8.30;2.67;;;13.30;77.60;;;;;;4923372;29;20059;-75
2022/09/27 09:24:39;;;;;;;8.18;2.50;;;13.10;77.60;;;;;;4925459;28;20039;-78
2022/09/27 09:27:23;;;;;;;8.60;2.42;;;12.90;76.40;;;;;;4910910;29;20063;-77
2022/09/27 09:30:06;;;;;;;5.47;2.30;;;12.90;77.20;;;;;;4916280;28;20062;-79
2022/09/27 09:32:53;;;;;;;7.20;1.70;;;13.10;75.30;;;;;;4908258;29;20264;-79
2022/09/27 09:35:31;;;;;;;5.85;1.70;;;12.60;75.10;;;;;;4921097;28;20028;-76
2022/09/27 09:38:01;;;;;;;5.18;1.50;;;12.30;76.80;;;;;;4917804;29;20060;-78
2022/09/27 09:40:39;;;;;;;5.57;1.67;;;12.20;76.70;;;;;;4906044;29;20032;-79
2022/09/27 09:43:20;;;;;;;7.25;1.50;;;11.90;77.40;;;;;;4920293;29;20052;-79
2022/09/27 09:45:50;;;;;;;5.63;1.42;;;11.80;77.40;;;;;;4903586;29;20499;-80
2022/09/27 09:48:21;;;;;;;5.18;1.65;;;11.80;78.70;;;;;;4914942;29;20192;-79
2022/09/27 09:50:50;;;;;;;7.40;2.00;;;11.70;79.10;;;;;;4918736;29;20091;-79
2022/09/27 09:53:41;;;;;;;8.95;2.20;;;11.70;79.30;;;;;;4911868;29;20096;-79
2022/09/27 09:56:12;;;;;;;3.88;1.30;;;11.50;80.20;;;;;;4930005;28;20069;-80
2022/09/27 09:58:48;;;;;;;4.80;1.40;;;11.10;81.40;;;;;;4901582;29;20055;-78
2022/09/27 10:01:24;;;;;;;4.97;1.90;;;10.80;83.00;;;;;;4924077;29;20126;-79
2022/09/27 10:03:50;;;;;;;4.15;1.75;;;10.50;84.00;;;;;;4920718;28;20562;-78
2022/09/27 10:06:18;;;;;;;5.15;1.83;;;10.60;84.90;;;;;;4912103;29;20032;-80
2022/09/27 10:08:43;;;;;;;7.13;2.45;;;10.60;85.50;;;;;;4919132;28;20036;-79
2022/09/27 10:11:20;;;;;;;4.53;1.90;;;10.60;85.50;;;;;;4917819;29;20044;-80
2022/09/27 10:13:46;;;;;;;7.07;2.22;;;10.60;85.90;;;;;;4917673;29;20086;-79
2022/09/27 10:16:16;;;;;;;8.98;2.58;;;10.80;86.40;;;;;;4932433;28;20447;-78
2022/09/27 10:18:43;;;;;;;9.65;2.75;;;10.80;86.00;;;;;;4917555;29;20020;-79
2022/09/27 10:21:41;;;;;;;6.43;2.55;;;10.90;86.00;;;;;;4910125;29;20063;-80
2022/09/27 10:24:18;;;;;;;8.35;3.50;;;11.10;86.00;;;;;;4904977;28;20044;-80
2022/09/27 10:26:46;;;;;;;9.15;3.42;;;11.10;85.60;;;;;;4926176;28;20040;-82
2022/09/27 10:29:30;;;;;;;14.23;4.80;;;11.10;85.50;;;;;;4898164;29;20254;-81
2022/09/27 10:31:56;;;;;;;8.57;4.30;;;11.10;86.00;;;;;;4913137;29;20513;-80
2022/09/27 10:34:39;;;;;;;9.02;3.40;;;11.10;85.80;;;;;;4913203;28;20276;-78
2022/09/27 10:37:10;;;;;;;10.10;3.40;;;11.00;85.30;;;;;;4913309;29;20510;-80
2022/09/27 10:39:37;;;;;;;8.05;3.58;;;11.00;85.50;;;;;;4913801;29;20036;-81
2022/09/27 10:42:19;;;;;;;11.00;3.63;;;11.40;86.00;;;;;;4906187;28;20036;-77
2022/09/27 10:44:45;;;;;;;9.68;3.80;;;12.00;86.10;;;;;;4910256;29;20479;-78
2022/09/27 10:47:21;;;;;;;8.77;3.53;;;12.60;85.60;;;;;;4912465;29;20046;-78
2022/09/27 10:49:47;;;;;;;9.65;3.33;;;12.90;84.00;;;;;;4913684;28;20040;-75
2022/09/27 10:52:19;;;;;;;9.02;2.65;;;12.90;82.40;;;;;;4917082;29;20472;-76
2022/09/27 10:54:57;;;;;;;7.57;3.13;;;12.80;82.50;;;;;;4914207;29;20070;-79
2022/09/27 10:57:25;;;;;;;10.95;3.47;;;12.50;83.00;;;;;;4915650;29;20374;-78
2022/09/27 11:00:05;;;;;;;13.38;3.03;;;12.20;82.00;;;;;;4912116;29;20673;-78
2022/09/27 11:02:36;;;;;;;7.00;2.28;;;12.30;79.90;;;;;;4912663;29;20040;-77
2022/09/27 11:05:04;;;;;;;8.88;1.65;;;12.30;79.50;;;;;;4911833;28;20528;-76
2022/09/27 11:07:30;;;;;;;13.00;2.55;;;12.50;79.20;;;;;;4914401;29;20039;-78
2022/09/27 11:10:03;;;;;;;12.35;3.60;;;12.80;78.60;;;;;;4915345;28;20063;-77
2022/09/27 11:12:30;;;;;;;8.23;2.40;;;12.90;75.70;;;;;;4914929;29;20028;-77
2022/09/27 11:15:06;;;;;;;6.38;1.85;;;13.10;77.80;;;;;;4911324;28;20140;-77
2022/09/27 11:17:46;;;;;;;11.57;2.53;;;13.30;74.60;;;;;;4911804;29;20122;-77
2022/09/27 11:20:30;;;;;;;8.93;2.13;;;13.40;70.50;;;;;;4915125;28;20618;-77
2022/09/27 11:22:58;;;;;;;7.38;1.77;;;13.40;71.30;;;;;;4912215;29;20540;-76
2022/09/27 11:25:55;;;;;;;8.40;2.42;;;13.30;72.40;;;;;;4911319;29;20039;-77
2022/09/27 11:28:39;;;;;;;9.98;2.40;;;13.30;72.20;;;;;;4912065;29;20217;-78
2022/09/27 11:31:20;;;;;;;10.07;2.90;;;13.60;71.40;;;;;;4912272;29;20032;-77
2022/09/27 11:34:15;;;;;;;10.80;2.30;;;13.60;71.40;;;;;;4916377;29;20061;-76
2022/09/27 11:36:46;;;;;;;10.05;2.83;;;13.40;71.80;;;;;;4930134;29;20035;-79
2022/09/27 11:39:50;;;;;;;9.75;2.40;;;12.60;76.50;;;;;;4928487;28;20043;-81
2022/09/27 11:42:54;;;;;;;9.75;2.40;;;12.10;79.40;;;;;;4903720;29;20046;-83
2022/09/27 11:45:43;;;;;;;13.38;2.85;;;12.10;79.90;;;;;;4923954;29;20042;-83
2022/09/27 11:48:26;;;;;;;11.10;2.17;;;12.40;80.70;;;;;;4911521;29;20032;-83
2022/09/27 11:51:23;;;;;;;12.07;2.30;;;12.60;81.10;;;;;;4921721;29;20487;-76
2022/09/27 11:53:58;;;;;;;8.55;2.15;;;12.80;79.80;;;;;;4900476;29;20122;-80
2022/09/27 11:56:40;;;;;;;8.68;2.28;;;12.90;79.80;;;;;;4916707;29;20142;-80
2022/09/27 11:59:19;;;;;;;7.95;2.13;;;13.00;77.90;;;;;;4914536;29;20028;-82
2022/09/27 12:02:11;;;;;;;7.93;2.08;;;13.10;76.90;;;;;;4913077;29;20142;-82
2022/09/27 12:05:11;;;;;;;7.47;2.15;;;13.30;76.70;;;;;;4926587;29;20035;-81
2022/09/27 12:07:47;;;;;;;8.75;2.42;;;13.70;76.90;;;;;;4906433;29;20040;-78
2022/09/27 12:10:16;;;;;;;8.18;2.38;;;13.70;76.10;;;;;;4926920;28;20023;-84
2022/09/27 12:12:49;;;;;;;8.60;1.80;;;13.70;74.80;;;;;;4924771;29;20048;-84
2022/09/27 12:15:21;;;;;;;8.07;2.40;;;13.70;75.90;;;;;;4916077;29;20035;-83
2022/09/27 12:17:55;;;;;;;6.10;2.10;;;13.70;76.70;;;;;;4917800;29;20484;-82
2022/09/27 12:20:33;;;;;;;10.75;2.72;;;13.80;75.60;;;;;;4911688;28;20308;-80
2022/09/27 12:23:10;;;;;;;9.88;2.30;;;14.00;77.50;;;;;;4920326;29;20035;-81
2022/09/27 12:25:40;;;;;;;9.98;2.90;;;14.40;76.30;;;;;;4917889;28;20036;-81
2022/09/27 12:28:27;;;;;;;10.60;2.63;;;14.40;74.60;;;;;;4922764;29;20106;-83
2022/09/27 12:31:07;;;;;;;8.85;2.40;;;14.20;72.80;;;;;;4929385;29;20411;-81
2022/09/27 12:33:44;;;;;;;7.75;1.77;;;13.90;71.10;;;;;;4925281;29;20031;-81
2022/09/27 12:36:16;;;;;;;8.20;1.58;;;13.60;70.20;;;;;;4915429;29;20135;-82
2022/09/27 12:38:50;;;;;;;8.23;1.75;;;13.50;70.40;;;;;;4923246;29;20039;-81
2022/09/27 12:41:20;;;;;;;7.40;1.80;;;13.50;70.90;;;;;;4924572;29;20205;-81
2022/09/27 12:43:48;;;;;;;5.40;1.55;;;13.50;72.80;;;;;;4912152;29;20405;-80
2022/09/27 12:46:34;;;;;;;10.27;2.42;;;13.60;71.40;;;;;;4906668;29;20036;-83
2022/09/27 12:49:36;;;;;;;7.10;2.05;;;13.90;71.00;;;;;;4921761;29;20028;-84
2022/09/27 12:52:10;;;;;;;11.75;2.33;;;14.20;72.40;;;;;;4935015;28;20051;-81
2022/09/27 12:55:14;;;;;;;9.38;2.17;;;14.30;70.30;;;;;;4914701;29;20382;-81
2022/09/27 12:58:17;;;;;;;6.68;1.75;;;14.60;70.90;;;;;;4916849;29;20652;-83
2022/09/27 13:00:58;;;;;;;9.98;2.25;;;14.70;70.50;;;;;;4921111;29;20043;-82
2022/09/27 13:03:52;;;;;;;9.68;2.40;;;14.60;68.90;;;;;;4900280;29;20028;-81
2022/09/27 13:06:46;;;;;;;8.40;2.25;;;14.50;70.20;;;;;;4912669;29;20070;-81
2022/09/27 13:09:30;;;;;;;7.22;2.50;;;14.60;70.20;;;;;;4913957;28;20040;-83
2022/09/27 13:12:09;;;;;;;4.93;1.65;;;14.70;69.70;;;;;;4917373;29;20054;-80
2022/09/27 13:14:43;;;;;;;7.07;2.00;;;14.90;67.40;;;;;;4903014;29;20095;-79
2022/09/27 13:17:47;;;;;;;8.97;1.87;;;14.40;68.20;;;;;;4919134;29;20036;-81